Time;durP1;ratioP1;P1;durP2;ratioP2;P2;SDS_P1;SDS_P2;PMS_P1;PMS_P2;Temp;Humidity;BMP_temperature;BMP_pressure;BME280_temperature;BME280_humidity;BME280_pressure;Samples;Min_cycle;Max_cycle;Signal;HPM_P1;HPM_P2
2022/07/26 00:01:42;;;;;;;11.65;2.53;;;20.20;99.90;;;;;;5030842;28;20045;-89
2022/07/26 00:04:11;;;;;;;3.30;2.03;;;20.20;99.90;;;;;;5047472;28;20044;-88
2022/07/26 00:06:37;;;;;;;7.95;2.30;;;20.20;99.90;;;;;;5032198;28;20065;-88
2022/07/26 00:09:03;;;;;;;6.60;2.20;;;20.20;99.90;;;;;;5010276;28;20044;-88
2022/07/26 00:11:32;;;;;;;11.90;2.13;;;20.20;99.90;;;;;;5011137;28;20022;-87
2022/07/26 00:14:00;;;;;;;5.38;2.42;;;20.20;99.90;;;;;;5010627;28;20137;-88
2022/07/26 00:16:26;;;;;;;7.53;2.25;;;20.20;99.90;;;;;;5012125;28;20099;-88
2022/07/26 00:18:55;;;;;;;3.90;2.00;;;20.20;99.90;;;;;;5011859;28;20018;-87
2022/07/26 00:21:21;;;;;;;4.43;2.40;;;20.20;99.90;;;;;;5027340;28;20026;-87
2022/07/26 00:23:47;;;;;;;4.95;2.20;;;20.20;99.90;;;;;;4985542;28;20677;-88
2022/07/26 00:26:13;;;;;;;8.57;2.58;;;20.20;99.90;;;;;;4996038;28;20112;-88
2022/07/26 00:28:40;;;;;;;3.45;2.03;;;20.20;99.90;;;;;;4994978;28;20030;-87
2022/07/26 00:31:13;;;;;;;3.63;2.22;;;20.20;99.90;;;;;;4995016;28;20129;-88
2022/07/26 00:33:39;;;;;;;3.47;2.22;;;20.20;99.90;;;;;;4995733;28;20389;-88
2022/07/26 00:36:05;;;;;;;3.67;2.17;;;20.20;99.90;;;;;;4999617;28;20105;-88
2022/07/26 00:38:31;;;;;;;6.43;2.67;;;20.20;99.90;;;;;;5000068;28;20045;-88
2022/07/26 00:40:57;;;;;;;6.50;2.22;;;20.20;99.90;;;;;;5002029;28;20034;-87
2022/07/26 00:43:25;;;;;;;4.57;2.13;;;20.10;99.90;;;;;;4999695;28;20037;-88
2022/07/26 00:45:51;;;;;;;4.07;2.53;;;20.10;99.90;;;;;;5002801;28;20073;-87
2022/07/26 00:48:18;;;;;;;3.15;2.25;;;20.00;99.90;;;;;;5005164;28;20061;-88
2022/07/26 00:50:43;;;;;;;6.25;2.40;;;20.00;99.90;;;;;;5019287;28;20025;-89
2022/07/26 00:53:09;;;;;;;5.90;2.40;;;19.80;99.90;;;;;;5019164;28;20038;-86
2022/07/26 00:55:35;;;;;;;5.85;2.47;;;19.80;99.90;;;;;;5035683;28;20069;-90
2022/07/26 00:58:01;;;;;;;5.72;2.42;;;19.80;99.90;;;;;;5019214;28;20049;-89
2022/07/26 01:00:29;;;;;;;6.50;2.45;;;19.80;99.90;;;;;;5019665;28;20025;-90
2022/07/26 01:02:55;;;;;;;4.68;2.00;;;19.80;99.90;;;;;;5034474;28;20030;-88
2022/07/26 01:05:22;;;;;;;6.43;2.22;;;19.70;99.90;;;;;;5018627;28;20075;-88
2022/07/26 01:07:48;;;;;;;10.98;2.67;;;19.70;99.90;;;;;;5037306;28;20029;-89
2022/07/26 01:10:14;;;;;;;10.30;2.40;;;19.60;99.90;;;;;;5019897;28;20034;-89
2022/07/26 01:12:45;;;;;;;5.60;2.30;;;19.60;99.90;;;;;;5019421;28;20034;-89
2022/07/26 01:15:13;;;;;;;5.82;2.30;;;19.50;99.90;;;;;;5036649;28;20046;-88
2022/07/26 01:17:39;;;;;;;5.82;2.40;;;19.30;99.90;;;;;;5036777;28;20033;-88
2022/07/26 01:20:08;;;;;;;4.30;2.22;;;19.30;99.90;;;;;;5037181;28;20040;-89
2022/07/26 01:22:34;;;;;;;3.88;2.50;;;19.30;99.90;;;;;;5036945;28;20068;-86
2022/07/26 01:25:02;;;;;;;6.22;2.67;;;19.20;99.90;;;;;;5035677;28;20052;-90
2022/07/26 01:27:28;;;;;;;8.80;3.25;;;19.10;99.90;;;;;;5019888;28;20038;-88
2022/07/26 01:29:53;;;;;;;3.50;2.17;;;19.00;99.90;;;;;;5036115;28;20094;-89
2022/07/26 01:32:19;;;;;;;11.20;2.45;;;18.80;99.90;;;;;;5036896;28;20030;-89
2022/07/26 01:34:45;;;;;;;5.07;2.40;;;18.70;99.90;;;;;;5036128;28;20049;-87
2022/07/26 01:37:11;;;;;;;8.88;3.38;;;18.70;99.90;;;;;;5020425;28;20042;-88
2022/07/26 01:39:43;;;;;;;10.15;2.65;;;18.80;99.90;;;;;;5019528;28;20049;-88
2022/07/26 01:42:08;;;;;;;5.55;2.30;;;18.70;99.90;;;;;;5020421;28;20050;-88
2022/07/26 01:44:34;;;;;;;4.05;2.38;;;18.70;99.90;;;;;;5019701;28;20049;-89
2022/07/26 01:47:00;;;;;;;6.13;2.47;;;18.70;99.90;;;;;;5035974;28;20041;-88
2022/07/26 01:49:25;;;;;;;9.35;2.38;;;18.70;99.90;;;;;;5035507;28;20036;-87
2022/07/26 01:51:51;;;;;;;5.32;2.53;;;18.80;99.90;;;;;;5036166;28;20018;-88
2022/07/26 01:54:22;;;;;;;4.50;2.25;;;18.70;99.90;;;;;;5034972;28;20026;-87
2022/07/26 01:56:48;;;;;;;9.93;2.50;;;18.70;99.90;;;;;;5019548;28;20097;-87
2022/07/26 01:59:13;;;;;;;3.72;2.05;;;18.60;99.90;;;;;;5018559;28;20030;-88
2022/07/26 02:01:39;;;;;;;5.38;2.60;;;18.50;99.90;;;;;;5018302;28;20442;-88
2022/07/26 02:04:05;;;;;;;4.38;2.63;;;18.50;99.90;;;;;;5018126;28;20018;-89
2022/07/26 02:06:30;;;;;;;5.65;2.70;;;18.40;99.90;;;;;;5036436;28;20112;-89
2022/07/26 02:08:58;;;;;;;6.45;2.58;;;18.40;99.90;;;;;;5036138;28;20074;-88
2022/07/26 02:11:27;;;;;;;8.50;2.63;;;18.20;99.90;;;;;;5036077;28;20025;-87
2022/07/26 02:13:52;;;;;;;4.18;2.45;;;18.10;99.90;;;;;;5019557;28;20086;-87
2022/07/26 02:16:18;;;;;;;3.42;2.63;;;18.10;99.90;;;;;;5020776;28;20014;-88
2022/07/26 02:18:44;;;;;;;8.15;2.40;;;18.00;99.90;;;;;;5018824;28;20038;-89
2022/07/26 02:21:09;;;;;;;6.13;2.35;;;17.90;99.90;;;;;;5020062;28;20038;-87
2022/07/26 02:23:38;;;;;;;7.05;2.97;;;17.70;99.90;;;;;;5014453;28;20517;-87
2022/07/26 02:26:04;;;;;;;4.32;2.53;;;17.60;99.90;;;;;;5017579;28;20075;-87
2022/07/26 02:28:30;;;;;;;4.90;2.50;;;17.50;99.90;;;;;;5017667;28;20065;-87
2022/07/26 02:30:55;;;;;;;6.07;2.83;;;17.50;99.90;;;;;;5017541;28;20034;-87
2022/07/26 02:33:21;;;;;;;4.00;2.28;;;17.50;99.90;;;;;;5016752;28;20030;-87
2022/07/26 02:35:47;;;;;;;4.28;2.40;;;17.40;99.90;;;;;;5000450;28;20030;-87
2022/07/26 02:38:18;;;;;;;10.27;2.72;;;17.40;99.90;;;;;;5017644;28;20038;-87
2022/07/26 02:40:44;;;;;;;3.78;2.50;;;17.20;99.90;;;;;;5001400;28;20042;-87
2022/07/26 02:43:10;;;;;;;7.18;2.75;;;17.10;99.90;;;;;;5000783;28;20034;-87
2022/07/26 02:45:36;;;;;;;4.90;2.75;;;17.00;99.90;;;;;;5017652;28;20498;-87
2022/07/26 02:48:03;;;;;;;4.28;2.53;;;16.90;99.90;;;;;;5017104;28;20034;-87
2022/07/26 02:50:29;;;;;;;3.90;2.60;;;16.90;99.90;;;;;;4999510;28;20038;-88
2022/07/26 02:52:57;;;;;;;4.03;2.60;;;16.70;99.90;;;;;;5000009;28;20537;-87
2022/07/26 02:55:24;;;;;;;3.30;2.95;;;16.50;99.90;;;;;;4999416;28;20034;-87
2022/07/26 02:57:51;;;;;;;6.88;2.70;;;16.40;99.90;;;;;;5015865;28;20418;-87
2022/07/26 03:00:20;;;;;;;7.07;3.58;;;16.30;99.90;;;;;;5000071;28;20030;-87
2022/07/26 03:02:48;;;;;;;6.30;3.03;;;16.20;99.90;;;;;;4999577;28;20092;-87
2022/07/26 03:05:17;;;;;;;4.75;2.78;;;16.10;99.90;;;;;;5000435;28;20100;-87
2022/07/26 03:07:43;;;;;;;5.82;3.13;;;16.10;99.90;;;;;;5001337;28;20041;-88
2022/07/26 03:10:09;;;;;;;8.25;3.00;;;16.00;99.90;;;;;;5018535;28;20383;-87
2022/07/26 03:12:35;;;;;;;11.77;3.28;;;16.00;99.90;;;;;;5019562;28;20037;-87
2022/07/26 03:15:01;;;;;;;9.15;4.45;;;15.90;99.90;;;;;;4995966;28;20053;-87
2022/07/26 03:17:26;;;;;;;4.88;3.30;;;15.80;99.90;;;;;;5010697;28;20030;-87
2022/07/26 03:19:55;;;;;;;7.57;2.80;;;15.70;99.90;;;;;;5011805;28;20042;-88
2022/07/26 03:22:20;;;;;;;5.65;3.30;;;15.80;99.90;;;;;;5011413;28;20034;-87
2022/07/26 03:24:46;;;;;;;5.80;3.10;;;15.70;99.90;;;;;;4993718;28;20120;-87
2022/07/26 03:27:12;;;;;;;8.90;3.85;;;15.60;99.90;;;;;;4993551;28;20029;-88
2022/07/26 03:29:38;;;;;;;6.82;3.42;;;15.60;99.90;;;;;;4994199;28;20036;-88
2022/07/26 03:32:04;;;;;;;3.15;2.50;;;15.50;99.90;;;;;;5010945;28;20033;-87
2022/07/26 03:34:29;;;;;;;6.20;3.22;;;15.50;99.90;;;;;;4995119;28;20045;-87
2022/07/26 03:36:55;;;;;;;5.75;2.88;;;15.50;99.90;;;;;;5012742;28;20080;-86
2022/07/26 03:39:21;;;;;;;8.77;3.30;;;15.40;99.90;;;;;;4995716;28;20576;-87
2022/07/26 03:41:47;;;;;;;5.53;3.33;;;15.50;99.90;;;;;;4995887;28;20034;-87
2022/07/26 03:44:12;;;;;;;7.53;3.08;;;15.50;99.90;;;;;;4993424;28;20030;-87
2022/07/26 03:46:38;;;;;;;7.20;3.20;;;15.50;99.90;;;;;;4992017;28;20038;-87
2022/07/26 03:49:03;;;;;;;5.55;2.80;;;15.40;99.90;;;;;;4975202;28;20031;-87
2022/07/26 03:51:36;;;;;;;9.10;3.17;;;15.40;99.90;;;;;;4993425;28;20037;-87
2022/07/26 03:54:02;;;;;;;6.18;3.70;;;15.30;99.90;;;;;;4976236;28;20446;-88
2022/07/26 03:56:28;;;;;;;5.60;3.13;;;15.30;99.90;;;;;;4976767;28;20049;-87
2022/07/26 03:58:54;;;;;;;6.28;3.15;;;15.20;99.90;;;;;;4976483;28;20033;-88
2022/07/26 04:01:20;;;;;;;6.80;3.42;;;15.40;99.90;;;;;;4976503;28;20035;-88
2022/07/26 04:03:46;;;;;;;3.90;2.92;;;15.60;99.90;;;;;;4976394;28;20117;-88
2022/07/26 04:06:13;;;;;;;6.82;3.28;;;15.70;99.90;;;;;;4992649;28;20141;-87
2022/07/26 04:08:39;;;;;;;4.75;3.50;;;15.70;99.90;;;;;;4996332;28;20045;-88
2022/07/26 04:11:05;;;;;;;5.53;3.67;;;15.70;99.90;;;;;;4980990;28;20061;-87
2022/07/26 04:13:30;;;;;;;4.68;3.22;;;15.70;99.90;;;;;;4980868;28;20034;-88
2022/07/26 04:15:56;;;;;;;13.90;3.72;;;15.90;99.90;;;;;;4981101;28;20125;-88
2022/07/26 04:18:22;;;;;;;6.40;3.47;;;15.90;99.90;;;;;;4982220;28;20041;-87
2022/07/26 04:20:47;;;;;;;6.35;3.30;;;16.00;99.90;;;;;;4980693;28;20073;-87
2022/07/26 04:23:13;;;;;;;11.52;3.20;;;16.00;99.90;;;;;;4996819;28;20114;-87
2022/07/26 04:25:39;;;;;;;5.55;3.10;;;16.00;99.90;;;;;;4986297;28;20037;-86
2022/07/26 04:28:05;;;;;;;7.35;3.13;;;16.00;99.90;;;;;;5000890;28;20037;-87
2022/07/26 04:30:31;;;;;;;4.72;3.13;;;16.00;99.90;;;;;;4980541;28;20038;-88
2022/07/26 04:32:56;;;;;;;4.93;3.13;;;16.10;99.90;;;;;;4986700;28;20030;-87
2022/07/26 04:35:22;;;;;;;8.82;3.80;;;16.10;99.90;;;;;;5009291;28;20038;-88
2022/07/26 04:37:50;;;;;;;6.20;3.20;;;16.10;99.90;;;;;;4998583;28;20034;-88
2022/07/26 04:40:18;;;;;;;4.22;3.30;;;16.20;99.90;;;;;;5017819;28;20104;-88
2022/07/26 04:42:44;;;;;;;7.10;3.15;;;16.30;99.90;;;;;;5016669;28;20050;-89
2022/07/26 04:45:14;;;;;;;4.97;2.67;;;16.30;99.90;;;;;;4989132;28;20113;-87
2022/07/26 04:47:46;;;;;;;9.25;3.45;;;16.40;99.90;;;;;;4997648;28;20041;-87
2022/07/26 04:50:12;;;;;;;12.98;4.00;;;16.70;99.90;;;;;;4983913;28;20046;-88
2022/07/26 04:52:38;;;;;;;4.40;2.95;;;16.90;99.90;;;;;;4998180;28;20069;-88
2022/07/26 04:55:08;;;;;;;4.97;2.78;;;17.20;99.90;;;;;;4998182;28;20018;-88
2022/07/26 04:57:34;;;;;;;8.88;4.10;;;17.50;99.90;;;;;;5014963;28;20045;-88
2022/07/26 05:00:00;;;;;;;4.35;3.30;;;17.70;99.90;;;;;;5015205;28;20037;-89
2022/07/26 05:02:29;;;;;;;5.88;3.10;;;18.00;99.90;;;;;;4999965;28;20044;-89
2022/07/26 05:04:54;;;;;;;8.93;3.42;;;18.20;99.90;;;;;;5015352;28;20038;-88
2022/07/26 05:07:20;;;;;;;12.60;3.10;;;18.30;99.90;;;;;;5015421;28;20045;-89
2022/07/26 05:09:46;;;;;;;9.38;3.15;;;18.40;99.90;;;;;;5016419;28;20026;-89
2022/07/26 05:12:11;;;;;;;9.00;3.05;;;18.50;99.90;;;;;;4998968;28;20027;-88
2022/07/26 05:14:37;;;;;;;6.70;3.53;;;18.60;99.90;;;;;;4998412;28;20046;-89
2022/07/26 05:17:06;;;;;;;5.93;2.70;;;18.70;99.90;;;;;;5000391;28;20329;-89
2022/07/26 05:19:32;;;;;;;4.30;2.55;;;18.80;99.90;;;;;;5012446;28;20037;-88
2022/07/26 05:21:58;;;;;;;11.77;3.17;;;19.00;99.90;;;;;;4997582;28;20015;-87
2022/07/26 05:24:23;;;;;;;6.30;3.00;;;19.10;99.90;;;;;;5014448;28;20034;-88
2022/07/26 05:26:49;;;;;;;9.70;2.47;;;19.20;99.90;;;;;;4999307;28;20024;-89
2022/07/26 05:29:15;;;;;;;18.60;4.30;;;19.30;99.90;;;;;;5015009;28;20045;-88
2022/07/26 05:31:41;;;;;;;8.65;3.08;;;19.30;99.90;;;;;;4998748;28;20030;-89
2022/07/26 05:34:09;;;;;;;6.10;2.60;;;19.40;99.90;;;;;;5015106;28;20100;-89
2022/07/26 05:36:35;;;;;;;10.88;2.80;;;19.40;99.90;;;;;;4998957;28;20030;-90
2022/07/26 05:39:01;;;;;;;12.45;4.10;;;19.50;99.90;;;;;;5015208;28;20037;-89
2022/07/26 05:41:26;;;;;;;12.70;2.85;;;19.40;99.90;;;;;;4998056;28;20027;-90
2022/07/26 05:43:52;;;;;;;7.93;2.67;;;19.40;99.90;;;;;;4995684;28;20030;-87
2022/07/26 05:46:18;;;;;;;9.27;2.72;;;19.50;99.90;;;;;;4975861;28;20041;-88
2022/07/26 05:48:44;;;;;;;3.80;2.22;;;19.60;99.90;;;;;;4993007;28;20022;-88
2022/07/26 05:51:10;;;;;;;9.65;3.17;;;19.50;99.90;;;;;;4991638;28;20034;-88
2022/07/26 05:53:37;;;;;;;10.20;3.03;;;19.50;99.90;;;;;;4975872;28;20267;-87
2022/07/26 05:56:03;;;;;;;7.68;3.15;;;19.40;99.90;;;;;;4991703;28;20495;-87
2022/07/26 05:58:29;;;;;;;8.02;3.63;;;19.30;99.90;;;;;;4975304;28;20030;-88
2022/07/26 06:00:55;;;;;;;6.07;2.75;;;19.20;99.90;;;;;;4975809;28;20098;-88
2022/07/26 06:03:23;;;;;;;5.57;3.05;;;19.20;99.90;;;;;;4975832;28;20458;-89
2022/07/26 06:05:53;;;;;;;5.38;2.38;;;19.20;99.90;;;;;;4994185;28;20776;-87
2022/07/26 06:08:20;;;;;;;5.45;2.42;;;19.30;99.90;;;;;;4976516;28;20034;-88
2022/07/26 06:10:46;;;;;;;5.75;2.78;;;19.30;99.90;;;;;;4975828;28;20173;-87
2022/07/26 06:13:12;;;;;;;6.40;2.83;;;19.20;99.90;;;;;;4975645;28;20034;-88
2022/07/26 06:15:39;;;;;;;7.00;2.45;;;19.20;99.90;;;;;;4976667;28;20038;-89
2022/07/26 06:18:05;;;;;;;7.68;3.53;;;19.10;99.90;;;;;;4993171;28;20427;-88
2022/07/26 06:20:31;;;;;;;10.98;2.90;;;19.10;99.90;;;;;;4993857;28;20034;-89
2022/07/26 06:22:57;;;;;;;7.90;2.85;;;19.10;99.90;;;;;;4978312;28;20032;-88
2022/07/26 06:25:24;;;;;;;5.80;3.10;;;18.90;99.90;;;;;;4977162;28;20038;-87
2022/07/26 06:27:50;;;;;;;8.60;2.83;;;18.80;99.90;;;;;;4977361;28;20069;-88
2022/07/26 06:30:21;;;;;;;6.28;2.47;;;18.80;99.90;;;;;;4992829;28;20034;-88
2022/07/26 06:32:47;;;;;;;10.27;2.90;;;18.80;99.90;;;;;;4991746;28;20028;-88
2022/07/26 06:35:13;;;;;;;5.82;2.70;;;18.70;99.90;;;;;;4977004;28;20026;-88
2022/07/26 06:37:41;;;;;;;9.07;2.97;;;18.60;99.90;;;;;;4993860;28;20058;-88
2022/07/26 06:40:08;;;;;;;8.05;3.28;;;18.50;99.90;;;;;;4976497;28;20088;-88
2022/07/26 06:42:42;;;;;;;9.27;3.03;;;18.60;99.90;;;;;;4977285;28;20485;-88
2022/07/26 06:45:08;;;;;;;6.20;2.70;;;18.60;99.90;;;;;;4982386;28;20030;-88
2022/07/26 06:47:34;;;;;;;6.40;3.15;;;18.60;99.90;;;;;;4992994;28;20122;-88
2022/07/26 06:50:00;;;;;;;11.77;3.55;;;18.70;99.90;;;;;;4996596;28;20053;-87
2022/07/26 06:52:26;;;;;;;4.50;3.13;;;18.70;99.90;;;;;;4993507;28;20133;-89
2022/07/26 06:54:59;;;;;;;8.02;3.28;;;18.60;99.90;;;;;;4992669;28;20066;-89
2022/07/26 06:57:25;;;;;;;9.45;3.25;;;18.70;99.90;;;;;;4977575;28;20049;-88
2022/07/26 06:59:51;;;;;;;8.93;3.85;;;18.80;99.90;;;;;;4977450;28;20414;-88
2022/07/26 07:02:17;;;;;;;10.93;4.20;;;18.80;99.90;;;;;;4977396;28;20405;-88
2022/07/26 07:04:43;;;;;;;9.73;3.55;;;18.80;99.90;;;;;;4978408;28;20030;-88
2022/07/26 07:07:09;;;;;;;8.52;3.20;;;18.80;99.90;;;;;;4994909;28;20086;-88
2022/07/26 07:09:38;;;;;;;7.88;3.75;;;18.90;99.90;;;;;;4992920;28;20041;-87
2022/07/26 07:12:05;;;;;;;9.20;3.13;;;19.00;99.90;;;;;;4974300;28;20026;-88
2022/07/26 07:14:32;;;;;;;11.20;3.20;;;19.20;99.90;;;;;;4990724;28;20115;-87
2022/07/26 07:16:58;;;;;;;7.95;3.13;;;19.30;99.90;;;;;;4991289;28;20053;-89
2022/07/26 07:19:24;;;;;;;5.78;3.00;;;19.30;99.90;;;;;;4992941;28;20042;-87
2022/07/26 07:21:52;;;;;;;10.27;3.00;;;19.30;99.90;;;;;;4988625;28;20044;-88
2022/07/26 07:24:22;;;;;;;9.70;3.03;;;19.40;99.90;;;;;;4989360;28;20037;-88
2022/07/26 07:26:48;;;;;;;5.25;2.47;;;19.30;99.90;;;;;;4985248;28;20133;-88
2022/07/26 07:29:16;;;;;;;4.68;2.78;;;19.30;99.90;;;;;;4984095;28;20094;-89
2022/07/26 07:31:42;;;;;;;6.20;2.75;;;19.30;99.90;;;;;;4990959;28;20027;-90
2022/07/26 07:34:08;;;;;;;4.95;1.90;;;19.30;99.90;;;;;;4996793;28;20034;-88
2022/07/26 07:36:34;;;;;;;4.35;2.15;;;19.40;99.90;;;;;;4990541;28;20038;-88
2022/07/26 07:38:59;;;;;;;7.40;2.03;;;19.50;99.90;;;;;;4998163;28;20045;-88
2022/07/26 07:41:25;;;;;;;4.40;1.90;;;19.50;99.90;;;;;;4982641;28;20065;-88
2022/07/26 07:43:51;;;;;;;7.00;1.95;;;19.50;99.90;;;;;;4980993;28;20396;-87
2022/07/26 07:46:16;;;;;;;7.40;2.00;;;19.50;99.90;;;;;;4981090;28;20060;-88
2022/07/26 07:48:42;;;;;;;7.65;2.10;;;19.50;99.90;;;;;;4978671;28;20085;-88
2022/07/26 07:51:16;;;;;;;6.53;2.17;;;19.60;99.90;;;;;;4977806;28;20041;-88
2022/07/26 07:53:41;;;;;;;4.22;2.28;;;19.80;99.90;;;;;;4979204;28;20331;-89
2022/07/26 07:56:07;;;;;;;7.63;2.50;;;19.80;99.90;;;;;;4977413;28;20141;-88
2022/07/26 07:58:33;;;;;;;7.45;2.28;;;20.00;99.90;;;;;;4976319;28;20038;-88
2022/07/26 08:00:59;;;;;;;6.50;1.73;;;20.20;99.90;;;;;;4977134;28;20034;-89
2022/07/26 08:03:24;;;;;;;7.78;2.10;;;20.90;99.90;;;;;;4975233;28;20096;-89
2022/07/26 08:05:53;;;;;;;5.50;1.95;;;21.90;99.90;;;;;;4991906;28;20045;-88
2022/07/26 08:08:19;;;;;;;6.10;1.95;;;22.60;99.90;;;;;;4992711;28;20758;-88
2022/07/26 08:10:45;;;;;;;8.75;2.10;;;23.30;99.90;;;;;;4994484;28;20030;-89
2022/07/26 08:13:11;;;;;;;12.38;2.08;;;23.70;99.90;;;;;;4977766;28;20033;-88
2022/07/26 08:15:37;;;;;;;8.82;2.17;;;23.30;99.90;;;;;;4993253;28;20035;-88
2022/07/26 08:18:02;;;;;;;7.28;1.50;;;23.70;99.90;;;;;;4997625;28;20034;-90
2022/07/26 08:20:31;;;;;;;6.80;2.00;;;24.20;99.90;;;;;;5003158;28;20129;-89
2022/07/26 08:22:57;;;;;;;5.45;1.40;;;23.70;99.90;;;;;;4991511;28;20030;-89
2022/07/26 08:25:23;;;;;;;7.93;1.85;;;23.60;99.90;;;;;;4973406;28;20038;-89
2022/07/26 08:27:48;;;;;;;5.43;1.50;;;23.40;99.90;;;;;;4975194;28;20089;-90
2022/07/26 08:30:14;;;;;;;1.75;1.50;;;24.00;99.90;;;;;;4975426;28;20061;-89
2022/07/26 08:32:40;;;;;;;6.10;3.80;;;24.70;99.90;;;;;;4975445;28;20038;-87
2022/07/26 08:35:13;;;;;;;3.90;1.75;;;25.00;99.90;;;;;;4973947;28;20030;-90
2022/07/26 08:37:39;;;;;;;2.67;1.77;;;25.00;99.90;;;;;;4990778;28;20046;-88
2022/07/26 08:40:06;;;;;;;4.72;1.73;;;24.80;99.90;;;;;;4992261;28;20034;-88
2022/07/26 08:42:32;;;;;;;6.05;4.95;;;24.80;99.90;;;;;;4973209;28;20034;-89
2022/07/26 08:44:59;;;;;;;32.97;17.55;;;24.90;99.90;;;;;;4976530;28;20493;-88
2022/07/26 08:47:28;;;;;;;6.43;2.80;;;25.60;99.90;;;;;;4975325;28;20476;-88
2022/07/26 08:49:53;;;;;;;4.65;2.25;;;25.70;99.90;;;;;;4990914;28;20058;-88
2022/07/26 08:52:19;;;;;;;11.27;2.10;;;25.90;99.90;;;;;;4990499;28;20058;-87
2022/07/26 08:54:48;;;;;;;6.93;1.85;;;25.70;99.50;;;;;;4992721;28;20034;-87
2022/07/26 08:57:14;;;;;;;3.15;1.90;;;25.40;99.90;;;;;;4996804;28;20137;-89
2022/07/26 08:59:43;;;;;;;5.65;1.73;;;24.50;99.90;;;;;;5013207;28;20037;-88
2022/07/26 09:02:12;;;;;;;6.32;2.08;;;24.40;99.90;;;;;;5006187;28;20749;-87
2022/07/26 09:04:43;;;;;;;11.80;3.05;;;23.20;99.90;;;;;;5009904;28;20034;-85
2022/07/26 09:07:17;;;;;;;6.97;2.22;;;22.50;99.90;;;;;;4997673;28;20038;-86
2022/07/26 09:10:08;;;;;;;6.68;2.42;;;22.60;99.90;;;;;;5014331;28;20596;-87
2022/07/26 09:12:37;;;;;;;5.35;1.88;;;23.80;99.90;;;;;;4997461;28;20033;-87
2022/07/26 09:15:16;;;;;;;12.27;2.00;;;24.60;99.90;;;;;;4996120;28;20414;-86
2022/07/26 09:17:44;;;;;;;3.75;1.75;;;24.70;99.90;;;;;;5013415;28;20033;-87
2022/07/26 09:20:28;;;;;;;8.50;2.50;;;24.40;99.90;;;;;;4996861;28;20761;-86
2022/07/26 09:23:06;;;;;;;5.07;2.13;;;25.10;99.90;;;;;;5014373;28;20037;-87
2022/07/26 09:25:38;;;;;;;3.90;2.05;;;25.80;98.60;;;;;;4997687;28;20040;-86
2022/07/26 09:28:27;;;;;;;6.35;1.98;;;25.10;97.90;;;;;;4997145;28;20061;-86
2022/07/26 09:30:58;;;;;;;3.58;1.35;;;24.30;99.10;;;;;;5013154;28;20116;-86
2022/07/26 09:33:24;;;;;;;6.05;1.80;;;25.10;99.40;;;;;;4996031;28;20099;-86
2022/07/26 09:36:01;;;;;;;2.75;1.55;;;25.70;97.00;;;;;;4996492;28;20044;-87
2022/07/26 09:38:47;;;;;;;6.03;1.55;;;25.70;96.60;;;;;;4998084;28;20429;-86
2022/07/26 09:41:23;;;;;;;5.30;1.85;;;25.60;96.10;;;;;;4997630;28;20033;-87
2022/07/26 09:43:50;;;;;;;2.80;1.40;;;25.80;95.70;;;;;;5012823;28;20490;-87
2022/07/26 09:46:16;;;;;;;2.28;1.33;;;25.60;96.00;;;;;;5013780;28;20116;-87
2022/07/26 09:48:43;;;;;;;7.75;1.45;;;25.90;95.10;;;;;;4996292;28;20056;-86
2022/07/26 09:51:09;;;;;;;5.70;1.27;;;26.40;95.10;;;;;;5012895;28;20034;-85
2022/07/26 09:53:45;;;;;;;2.65;1.08;;;26.40;94.30;;;;;;5012251;28;20036;-87
2022/07/26 09:56:11;;;;;;;2.97;1.25;;;25.50;94.40;;;;;;4996464;28;20056;-87
2022/07/26 09:58:38;;;;;;;3.50;1.35;;;25.20;94.00;;;;;;4995333;28;20128;-87
2022/07/26 10:01:05;;;;;;;5.10;1.23;;;25.60;93.50;;;;;;5011682;28;20613;-87
2022/07/26 10:03:32;;;;;;;4.00;1.50;;;25.40;93.10;;;;;;5010579;28;20038;-88
2022/07/26 10:06:02;;;;;;;4.65;1.40;;;25.40;93.80;;;;;;5011132;28;20084;-87
2022/07/26 10:08:28;;;;;;;2.92;1.23;;;26.10;93.70;;;;;;5011328;28;20224;-87
2022/07/26 10:11:07;;;;;;;1.73;1.05;;;26.40;92.50;;;;;;5015628;28;20013;-88
2022/07/26 10:13:40;;;;;;;4.38;1.20;;;26.40;92.80;;;;;;5035280;28;20034;-90
2022/07/26 10:16:33;;;;;;;4.28;1.20;;;26.40;92.50;;;;;;5012554;28;20038;-86
2022/07/26 10:19:03;;;;;;;5.18;1.30;;;25.20;93.00;;;;;;5009725;28;20030;-89
2022/07/26 10:21:29;;;;;;;4.15;1.33;;;25.00;94.30;;;;;;5011415;28;20038;-87
2022/07/26 10:23:57;;;;;;;8.55;1.45;;;25.10;94.30;;;;;;5009901;28;20034;-88
2022/07/26 10:26:32;;;;;;;3.00;1.58;;;25.20;94.30;;;;;;5010844;28;20042;-86
2022/07/26 10:29:16;;;;;;;2.28;0.95;;;25.30;94.30;;;;;;4993687;28;20220;-85
2022/07/26 10:31:50;;;;;;;3.03;1.08;;;25.20;94.10;;;;;;5009787;28;20254;-87
2022/07/26 10:34:34;;;;;;;5.15;1.30;;;25.20;94.20;;;;;;4993142;28;20029;-87
2022/07/26 10:37:03;;;;;;;5.57;1.42;;;25.30;94.40;;;;;;5015219;28;20491;-86
2022/07/26 10:39:30;;;;;;;4.13;1.30;;;25.60;93.90;;;;;;5010552;28;20121;-85
2022/07/26 10:41:59;;;;;;;3.42;1.25;;;25.40;94.10;;;;;;5010742;28;20018;-88
2022/07/26 10:44:30;;;;;;;2.22;1.10;;;25.50;93.20;;;;;;4993353;28;20030;-86
2022/07/26 10:47:07;;;;;;;5.82;1.00;;;25.70;92.70;;;;;;5009697;28;20033;-90
2022/07/26 10:49:36;;;;;;;3.42;1.10;;;26.40;93.20;;;;;;5008678;28;20041;-88
2022/07/26 10:52:25;;;;;;;1.75;0.77;;;27.40;91.90;;;;;;5008577;28;20057;-87
2022/07/26 10:55:02;;;;;;;3.35;1.00;;;27.00;90.80;;;;;;4994216;28;20061;-87
2022/07/26 10:57:30;;;;;;;1.75;1.00;;;26.40;91.30;;;;;;5010793;28;20038;-87
2022/07/26 10:59:59;;;;;;;4.22;1.27;;;26.00;92.10;;;;;;5010919;28;20489;-87
2022/07/26 11:02:32;;;;;;;2.72;1.13;;;25.00;92.40;;;;;;5010705;28;20088;-85
2022/07/26 11:05:11;;;;;;;3.33;1.35;;;24.30;93.90;;;;;;4993600;28;20037;-86
2022/07/26 11:07:49;;;;;;;5.40;1.25;;;23.90;94.60;;;;;;5010667;28;20029;-86
2022/07/26 11:10:15;;;;;;;2.28;1.30;;;23.60;95.40;;;;;;5009743;28;20064;-86
2022/07/26 11:12:40;;;;;;;2.08;1.05;;;23.20;95.40;;;;;;5011774;28;20026;-87
2022/07/26 11:15:17;;;;;;;4.63;1.33;;;22.70;96.30;;;;;;5012004;28;20037;-87
2022/07/26 11:17:43;;;;;;;3.03;1.20;;;22.70;96.70;;;;;;5010382;28;20041;-85
2022/07/26 11:20:09;;;;;;;6.13;1.48;;;22.70;97.00;;;;;;5011487;28;20037;-87
2022/07/26 11:22:35;;;;;;;1.77;1.10;;;23.40;97.10;;;;;;5011478;28;20022;-88
2022/07/26 11:25:04;;;;;;;5.03;1.30;;;23.60;96.20;;;;;;4994426;28;20047;-88
2022/07/26 11:27:32;;;;;;;3.30;1.02;;;23.50;95.60;;;;;;5021237;28;20030;-86
2022/07/26 11:30:03;;;;;;;4.72;1.50;;;23.40;96.20;;;;;;5009398;28;20087;-87
2022/07/26 11:32:29;;;;;;;3.17;1.40;;;23.30;96.10;;;;;;5008964;28;20045;-89
2022/07/26 11:35:04;;;;;;;5.60;1.70;;;22.80;96.70;;;;;;5010136;28;20236;-84
2022/07/26 11:37:30;;;;;;;5.00;1.70;;;22.70;97.20;;;;;;5009293;28;20486;-86
2022/07/26 11:39:56;;;;;;;7.32;1.88;;;22.60;97.80;;;;;;4992734;28;20501;-88
2022/07/26 11:42:22;;;;;;;2.33;1.10;;;22.50;97.80;;;;;;5009474;28;20026;-86
2022/07/26 11:44:49;;;;;;;4.85;1.25;;;22.80;98.00;;;;;;5008947;28;20046;-86
2022/07/26 11:47:25;;;;;;;3.58;1.42;;;23.90;97.00;;;;;;5010831;28;20037;-87
2022/07/26 11:49:52;;;;;;;2.90;0.98;;;25.20;95.70;;;;;;5009947;28;20061;-87
2022/07/26 11:52:17;;;;;;;6.00;1.45;;;25.50;94.60;;;;;;5009247;28;20067;-87
2022/07/26 11:54:49;;;;;;;1.42;1.17;;;25.30;93.50;;;;;;5009199;28;20086;-86
2022/07/26 11:57:17;;;;;;;;;;;25.90;93.90;;;;;;4993410;28;20044;-86
2022/07/26 11:59:45;;;;;;;2.50;1.42;;;26.10;92.70;;;;;;5009485;28;19957;-89
2022/07/26 12:02:12;;;;;;;4.45;1.35;;;26.10;93.10;;;;;;4993848;28;20101;-86
2022/07/26 12:04:41;;;;;;;5.75;1.77;;;25.70;91.20;;;;;;5011317;28;20040;-86
2022/07/26 12:07:20;;;;;;;3.28;1.00;;;25.20;92.00;;;;;;4994809;28;20026;-87
2022/07/26 12:09:51;;;;;;;3.28;1.40;;;24.70;92.90;;;;;;5010586;28;20026;-88
2022/07/26 12:12:35;;;;;;;2.50;1.17;;;24.90;94.30;;;;;;4994439;28;20053;-86
2022/07/26 12:15:05;;;;;;;2.97;1.23;;;24.80;93.90;;;;;;4994223;28;20104;-88
2022/07/26 12:17:32;;;;;;;5.25;1.10;;;25.00;93.50;;;;;;4992995;28;20041;-88
2022/07/26 12:20:15;;;;;;;2.13;1.20;;;24.90;93.70;;;;;;4993000;28;20101;-87
2022/07/26 12:22:57;;;;;;;2.92;0.95;;;24.60;92.90;;;;;;4992234;28;20561;-89
2022/07/26 12:25:26;;;;;;;;;;;24.30;94.00;;;;;;5008954;28;20030;-88
2022/07/26 12:27:55;;;;;;;1.50;1.08;;;24.30;92.70;;;;;;5008937;28;19913;-87
2022/07/26 12:30:22;;;;;;;6.13;1.92;;;24.60;93.60;;;;;;5013067;28;20463;-85
2022/07/26 12:32:54;;;;;;;2.55;1.15;;;24.10;94.20;;;;;;5014074;28;20045;-86
2022/07/26 12:35:32;;;;;;;2.30;1.20;;;23.90;94.60;;;;;;4996325;28;20033;-86
2022/07/26 12:37:58;;;;;;;5.43;1.40;;;23.60;95.00;;;;;;5014696;28;20041;-88
2022/07/26 12:40:29;;;;;;;2.90;1.30;;;23.70;95.10;;;;;;4996747;28;20055;-87
2022/07/26 12:42:56;;;;;;;;;;;24.20;95.90;;;;;;5013346;28;20029;-86
2022/07/26 12:45:27;;;;;;;6.82;1.10;;;24.80;94.60;;;;;;5014363;28;19917;-86
2022/07/26 12:47:59;;;;;;;3.15;1.30;;;25.50;94.00;;;;;;5008441;28;20018;-86
2022/07/26 12:50:29;;;;;;;7.88;1.65;;;26.10;93.00;;;;;;5004348;28;20687;-86